createdAt,value
2023-03-20T00:02:20.700Z,8.30
2023-03-20T00:04:48.261Z,8.30
2023-03-20T00:07:15.749Z,8.30
2023-03-20T00:09:43.528Z,8.30
2023-03-20T00:12:15.728Z,8.30
2023-03-20T00:14:43.092Z,8.30
2023-03-20T00:17:20.263Z,8.30
2023-03-20T00:19:48.257Z,8.30
2023-03-20T00:22:15.884Z,8.30
2023-03-20T00:24:43.198Z,8.40
2023-03-20T00:27:15.754Z,8.40
2023-03-20T00:29:45.198Z,8.50
2023-03-20T00:32:13.717Z,8.50
2023-03-20T00:34:41.513Z,8.50
2023-03-20T00:37:09.876Z,8.60
2023-03-20T00:39:37.415Z,8.60
2023-03-20T00:42:06.351Z,8.60
2023-03-20T00:44:35.617Z,8.70
2023-03-20T00:47:13.184Z,8.70
2023-03-20T00:49:40.463Z,8.70
2023-03-20T00:52:12.718Z,8.70
2023-03-20T00:54:40.772Z,8.70
2023-03-20T00:57:12.183Z,8.70
2023-03-20T01:00:14.973Z,8.70
2023-03-20T01:02:42.273Z,8.80
2023-03-20T01:05:09.725Z,8.80
2023-03-20T01:07:37.091Z,8.80
2023-03-20T01:10:05.637Z,8.70
2023-03-20T01:12:33.489Z,8.60
2023-03-20T01:15:01.055Z,8.60
2023-03-20T01:17:29.953Z,8.60
2023-03-20T01:19:57.363Z,8.60
2023-03-20T01:22:24.715Z,8.50
2023-03-20T01:24:52.324Z,8.50
2023-03-20T01:27:20.553Z,8.50
2023-03-20T01:29:48.185Z,8.40
2023-03-20T01:32:18.250Z,8.40
2023-03-20T01:34:49.113Z,8.40
2023-03-20T01:37:26.878Z,8.40
2023-03-20T01:39:57.894Z,8.40
2023-03-20T01:42:26.344Z,8.40
2023-03-20T01:44:54.245Z,8.40
2023-03-20T01:47:24.782Z,8.30
2023-03-20T01:50:23.739Z,8.30
2023-03-20T01:53:10.890Z,8.30
2023-03-20T01:55:45.680Z,8.30
2023-03-20T01:58:19.640Z,8.20
2023-03-20T02:00:49.058Z,8.20
2023-03-20T02:03:19.801Z,8.20
2023-03-20T02:06:13.386Z,8.20
2023-03-20T02:08:59.487Z,8.20
2023-03-20T02:11:31.043Z,8.20
2023-03-20T02:14:00.638Z,8.20
2023-03-20T02:16:34.027Z,8.20
2023-03-20T02:19:55.644Z,8.20
2023-03-20T02:22:56.985Z,8.20
2023-03-20T02:25:43.455Z,8.10
2023-03-20T02:28:29.040Z,8.10
2023-03-20T02:31:32.459Z,8.10
2023-03-20T02:34:05.675Z,8.00
2023-03-20T02:36:44.235Z,8.00
2023-03-20T02:39:39.867Z,8.00
2023-03-20T02:42:22.337Z,7.90
2023-03-20T02:45:09.841Z,7.90
2023-03-20T02:48:03.592Z,7.90
2023-03-20T02:50:45.643Z,7.80
2023-03-20T02:53:49.669Z,7.80
2023-03-20T02:56:35.907Z,7.80
2023-03-20T02:59:16.563Z,7.80
2023-03-20T03:01:58.673Z,7.70
2023-03-20T03:04:30.393Z,7.60
2023-03-20T03:07:03.318Z,7.50
2023-03-20T03:09:55.231Z,7.40
2023-03-20T03:12:27.750Z,7.40
2023-03-20T03:15:05.683Z,7.40
2023-03-20T03:17:37.068Z,7.40
2023-03-20T03:20:16.142Z,7.50
2023-03-20T03:22:43.868Z,7.50
2023-03-20T03:25:13.324Z,7.50
2023-03-20T03:27:47.109Z,7.50
2023-03-20T03:30:41.316Z,7.50
2023-03-20T03:33:51.845Z,7.40
2023-03-20T03:36:38.308Z,7.30
2023-03-20T03:39:26.385Z,7.30
2023-03-20T03:42:24.274Z,7.20
2023-03-20T03:45:10.746Z,7.20
2023-03-20T03:47:41.292Z,7.10
2023-03-20T03:50:25.108Z,7.20
2023-03-20T03:52:57.665Z,7.10
2023-03-20T03:55:28.398Z,7.20
2023-03-20T03:58:07.260Z,7.10
2023-03-20T04:00:36.426Z,7.10
2023-03-20T04:03:07.347Z,7.10
2023-03-20T04:05:38.439Z,7.10
2023-03-20T04:08:06.548Z,7.20
2023-03-20T04:10:34.709Z,7.20
2023-03-20T04:13:02.050Z,7.20
2023-03-20T04:15:29.560Z,7.20
2023-03-20T04:17:57.536Z,7.20
2023-03-20T04:20:25.193Z,7.20
2023-03-20T04:22:52.535Z,7.10
2023-03-20T04:25:23.995Z,7.10
2023-03-20T04:27:54.382Z,7.10
2023-03-20T04:30:40.152Z,7.00
2023-03-20T04:33:35.138Z,7.00
2023-03-20T04:36:21.406Z,7.00
2023-03-20T04:38:50.957Z,6.90
2023-03-20T04:41:21.269Z,6.90
2023-03-20T04:43:53.003Z,6.90
2023-03-20T04:46:20.564Z,6.90
2023-03-20T04:48:48.112Z,6.90
2023-03-20T04:51:16.318Z,6.90
2023-03-20T04:53:48.314Z,6.90
2023-03-20T04:56:15.804Z,6.90
2023-03-20T04:58:43.337Z,6.90
2023-03-20T05:01:11.637Z,6.90
2023-03-20T05:03:39.887Z,6.90
2023-03-20T05:06:07.893Z,6.80
2023-03-20T05:08:35.232Z,6.70
2023-03-20T05:11:02.804Z,6.60
2023-03-20T05:13:56.301Z,6.60
2023-03-20T05:16:39.337Z,6.70
2023-03-20T05:19:18.949Z,6.70
2023-03-20T05:22:09.281Z,6.80
2023-03-20T05:24:55.035Z,6.90
2023-03-20T05:27:31.357Z,6.90
2023-03-20T05:30:24.997Z,7.00
2023-03-20T05:33:12.258Z,7.10
2023-03-20T05:35:58.035Z,7.10
2023-03-20T05:38:53.892Z,7.00
2023-03-20T05:41:32.286Z,7.00
2023-03-20T05:44:11.891Z,7.10
2023-03-20T05:47:02.360Z,7.20
2023-03-20T05:49:48.286Z,7.30
2023-03-20T05:52:33.522Z,7.50
2023-03-20T05:55:20.234Z,7.60
2023-03-20T05:58:08.021Z,7.80
2023-03-20T06:01:01.615Z,8.00
2023-03-20T06:04:08.604Z,8.20
2023-03-20T06:06:52.990Z,8.30
2023-03-20T06:09:20.710Z,8.50
2023-03-20T06:11:48.987Z,8.70
2023-03-20T06:14:18.082Z,8.90
2023-03-20T06:16:52.168Z,9.20
2023-03-20T06:19:20.774Z,9.50
2023-03-20T06:21:49.200Z,9.70
2023-03-20T06:24:19.692Z,9.90
2023-03-20T06:26:47.107Z,10.00
2023-03-20T06:29:15.277Z,10.10
2023-03-20T06:31:43.075Z,10.10
2023-03-20T06:34:16.533Z,10.00
2023-03-20T06:36:46.956Z,9.90
2023-03-20T06:39:19.623Z,9.70
2023-03-20T06:41:47.353Z,9.60
2023-03-20T06:44:14.652Z,9.60
2023-03-20T06:47:00.892Z,9.70
2023-03-20T06:49:28.688Z,9.90
2023-03-20T06:51:56.822Z,10.20
2023-03-20T06:54:26.892Z,10.50
2023-03-20T06:56:55.813Z,10.80
2023-03-20T06:59:23.735Z,11.10
2023-03-20T07:01:56.603Z,11.40
2023-03-20T07:04:24.191Z,11.60
2023-03-20T07:06:55.117Z,11.90
2023-03-20T07:09:24.040Z,12.20
2023-03-20T07:11:51.421Z,12.50
2023-03-20T07:14:18.909Z,12.70
2023-03-20T07:16:56.880Z,12.90
2023-03-20T07:19:24.376Z,13.10
2023-03-20T07:22:02.288Z,13.30
2023-03-20T07:24:35.257Z,13.40
2023-03-20T07:27:02.735Z,13.50
2023-03-20T07:29:31.795Z,13.70
2023-03-20T07:32:01.227Z,14.00
2023-03-20T07:34:34.063Z,14.20
2023-03-20T07:37:01.956Z,14.50
2023-03-20T07:39:32.177Z,14.70
2023-03-20T07:42:19.415Z,14.80
2023-03-20T07:44:59.421Z,15.00
2023-03-20T07:47:27.168Z,15.20
2023-03-20T07:49:54.693Z,15.30
2023-03-20T07:52:22.035Z,15.50
2023-03-20T07:54:49.572Z,15.60
2023-03-20T07:57:17.123Z,15.70
2023-03-20T07:59:44.826Z,15.80
2023-03-20T08:02:16.373Z,15.90
2023-03-20T08:04:45.076Z,16.00
2023-03-20T08:07:12.787Z,16.10
2023-03-20T08:09:40.354Z,16.10
2023-03-20T08:12:07.823Z,16.10
2023-03-20T08:14:35.275Z,16.20
2023-03-20T08:17:14.548Z,16.30
2023-03-20T08:19:42.668Z,16.40
2023-03-20T08:22:10.123Z,16.40
2023-03-20T08:24:37.697Z,16.50
2023-03-20T08:27:05.371Z,16.60
2023-03-20T08:29:32.667Z,16.50
2023-03-20T08:32:00.371Z,16.50
2023-03-20T08:34:28.065Z,16.50
2023-03-20T08:36:55.634Z,16.60
2023-03-20T08:39:22.993Z,16.80
2023-03-20T08:41:50.320Z,16.90
2023-03-20T08:44:18.008Z,17.00
2023-03-20T08:46:46.475Z,17.20
2023-03-20T08:49:14.209Z,17.20
2023-03-20T08:51:43.016Z,17.30
2023-03-20T08:54:10.619Z,17.30
2023-03-20T08:56:38.307Z,17.30
2023-03-20T08:59:06.197Z,17.30
2023-03-20T09:01:48.209Z,17.30
2023-03-20T09:04:17.571Z,17.50
2023-03-20T09:06:44.945Z,17.50
2023-03-20T09:09:15.782Z,17.60
2023-03-20T09:11:43.343Z,17.60
2023-03-20T09:14:11.782Z,17.70
2023-03-20T09:16:39.377Z,17.80
2023-03-20T09:19:06.911Z,17.90
2023-03-20T09:21:34.433Z,18.10
2023-03-20T09:24:02.281Z,18.20
2023-03-20T09:26:29.723Z,18.20
2023-03-20T09:28:57.103Z,18.20
2023-03-20T09:31:25.014Z,18.20
2023-03-20T09:33:53.728Z,18.10
2023-03-20T09:36:21.360Z,18.00
2023-03-20T09:38:48.745Z,18.20
2023-03-20T09:41:23.122Z,18.30
2023-03-20T09:44:12.097Z,18.50
2023-03-20T09:46:49.417Z,18.50
2023-03-20T09:49:50.333Z,18.70
2023-03-20T09:52:29.074Z,18.90
2023-03-20T09:55:08.036Z,19.00
2023-03-20T09:57:42.651Z,19.10
2023-03-20T10:00:18.873Z,19.00
2023-03-20T10:02:54.266Z,19.00
2023-03-20T10:05:49.587Z,19.10
2023-03-20T10:08:22.076Z,19.10
2023-03-20T10:11:01.431Z,19.10
2023-03-20T10:13:45.011Z,19.20
2023-03-20T10:16:35.599Z,19.30
2023-03-20T10:19:26.960Z,19.50
2023-03-20T10:22:25.501Z,19.40
2023-03-20T10:25:00.744Z,19.40
2023-03-20T10:27:43.164Z,19.50
2023-03-20T10:30:26.759Z,19.60
2023-03-20T10:32:56.880Z,19.90
2023-03-20T10:35:27.051Z,20.10
2023-03-20T10:38:32.357Z,20.20
2023-03-20T10:41:00.146Z,20.30
2023-03-20T10:43:32.925Z,20.60
2023-03-20T10:46:16.340Z,20.50
2023-03-20T10:48:57.343Z,20.30
2023-03-20T10:51:52.213Z,20.10
2023-03-20T10:54:31.394Z,20.00
2023-03-20T10:57:05.089Z,20.10
2023-03-20T10:59:41.304Z,20.30
2023-03-20T11:02:13.299Z,20.50
2023-03-20T11:04:41.114Z,20.50
2023-03-20T11:07:28.900Z,20.30
2023-03-20T11:10:17.084Z,20.10
2023-03-20T11:12:46.857Z,20.00
2023-03-20T11:15:31.088Z,19.90
2023-03-20T11:17:59.694Z,19.80
2023-03-20T11:20:32.766Z,19.60
2023-03-20T11:23:04.548Z,19.40
2023-03-20T11:25:38.489Z,19.50
2023-03-20T11:28:40.690Z,19.80
2023-03-20T11:31:13.890Z,19.80
2023-03-20T11:33:45.328Z,19.70
2023-03-20T11:36:22.692Z,19.60
2023-03-20T11:38:51.926Z,19.50
2023-03-20T11:41:24.779Z,19.60
2023-03-20T11:43:52.558Z,19.90
2023-03-20T11:46:23.278Z,20.00
2023-03-20T11:49:21.645Z,20.10
2023-03-20T11:51:49.246Z,20.00
2023-03-20T11:54:21.699Z,20.10
2023-03-20T11:56:57.817Z,20.20
2023-03-20T11:59:34.545Z,20.50
2023-03-20T12:02:04.884Z,20.70
2023-03-20T12:04:37.680Z,20.70
2023-03-20T12:07:16.051Z,20.90
2023-03-20T12:09:55.948Z,21.10
2023-03-20T12:12:41.165Z,21.30
2023-03-20T12:15:15.323Z,21.50
2023-03-20T12:17:54.624Z,21.70
2023-03-20T12:20:54.638Z,21.70
2023-03-20T12:23:26.182Z,21.90
2023-03-20T12:26:15.945Z,21.90
2023-03-20T12:28:47.649Z,22.00
2023-03-20T12:31:31.455Z,22.20
2023-03-20T12:34:06.174Z,22.10
2023-03-20T12:36:41.653Z,21.90
2023-03-20T12:39:18.864Z,21.80
2023-03-20T12:42:25.029Z,21.70
2023-03-20T12:44:59.142Z,21.40
2023-03-20T12:48:04.507Z,21.10
2023-03-20T12:50:50.419Z,21.00
2023-03-20T12:53:30.461Z,20.90
2023-03-20T12:56:19.543Z,20.90
2023-03-20T12:59:04.171Z,20.90
2023-03-20T13:01:33.076Z,20.90
2023-03-20T13:04:41.970Z,20.60
2023-03-20T13:07:50.613Z,20.30
2023-03-20T13:10:29.676Z,20.10
2023-03-20T13:13:19.051Z,20.20
2023-03-20T13:16:15.051Z,20.30
2023-03-20T13:18:55.845Z,20.20
2023-03-20T13:21:39.254Z,20.30
2023-03-20T13:24:18.841Z,20.20
2023-03-20T13:27:04.940Z,20.40
2023-03-20T13:30:01.146Z,20.70
2023-03-20T13:32:59.465Z,20.80
2023-03-20T13:35:42.540Z,20.70
2023-03-20T13:38:27.160Z,20.60
2023-03-20T13:41:06.347Z,20.50
2023-03-20T13:43:43.246Z,20.50
2023-03-20T13:46:20.383Z,20.50
2023-03-20T13:48:48.146Z,20.60
2023-03-20T13:51:38.138Z,20.60
2023-03-20T13:54:11.940Z,20.50
2023-03-20T13:56:57.869Z,20.50
2023-03-20T13:59:39.289Z,20.60
2023-03-20T14:02:12.999Z,20.60
2023-03-20T14:04:41.200Z,20.60
2023-03-20T14:07:29.063Z,20.70
2023-03-20T14:09:57.366Z,20.70
2023-03-20T14:12:27.094Z,20.80
2023-03-20T14:15:00.953Z,20.70
2023-03-20T14:17:30.770Z,20.60
2023-03-20T14:20:32.500Z,20.70
2023-03-20T14:23:00.377Z,20.80
2023-03-20T14:25:33.709Z,21.00
2023-03-20T14:28:21.224Z,20.90
2023-03-20T14:30:52.434Z,20.90
2023-03-20T14:33:23.003Z,20.80
2023-03-20T14:36:27.212Z,20.70
2023-03-20T14:39:09.588Z,20.60
2023-03-20T14:41:56.577Z,20.70
2023-03-20T14:44:49.761Z,20.70
2023-03-20T14:47:26.152Z,20.70
2023-03-20T14:50:01.520Z,20.50
2023-03-20T14:52:43.973Z,20.30
2023-03-20T14:55:20.750Z,20.20
2023-03-20T14:57:56.475Z,20.30
2023-03-20T15:00:28.212Z,20.30
2023-03-20T15:03:19.255Z,20.30
2023-03-20T15:05:47.729Z,20.20
2023-03-20T15:08:23.008Z,20.10
2023-03-20T15:10:55.056Z,20.00
2023-03-20T15:13:24.837Z,19.90
2023-03-20T15:15:59.051Z,19.90
2023-03-20T15:18:28.127Z,19.70
2023-03-20T15:20:58.614Z,19.60
2023-03-20T15:23:26.378Z,19.50
2023-03-20T15:25:53.735Z,19.40
2023-03-20T15:28:25.592Z,19.30
2023-03-20T15:30:56.927Z,19.30
2023-03-20T15:33:32.365Z,19.30
2023-03-20T15:36:17.876Z,19.30
2023-03-20T15:38:46.912Z,19.40
2023-03-20T15:41:28.852Z,19.40
2023-03-20T15:44:23.185Z,19.50
2023-03-20T15:46:56.648Z,19.50
2023-03-20T15:49:25.077Z,19.40
2023-03-20T15:51:54.607Z,19.20
2023-03-20T15:54:22.218Z,19.20
2023-03-20T15:56:52.692Z,19.10
2023-03-20T15:59:25.163Z,19.10
2023-03-20T16:01:56.518Z,19.10
2023-03-20T16:04:24.366Z,19.10
2023-03-20T16:06:58.185Z,18.90
2023-03-20T16:09:27.254Z,18.80
2023-03-20T16:12:02.931Z,18.60
2023-03-20T16:14:33.709Z,18.50
2023-03-20T16:17:03.525Z,18.30
2023-03-20T16:19:30.908Z,18.20
2023-03-20T16:22:02.154Z,18.10
2023-03-20T16:24:34.770Z,18.00
2023-03-20T16:27:07.735Z,18.00
2023-03-20T16:29:36.248Z,17.90
2023-03-20T16:32:07.807Z,17.80
2023-03-20T16:34:37.875Z,17.70
2023-03-20T16:37:31.564Z,17.60
2023-03-20T16:40:11.978Z,17.60
2023-03-20T16:42:39.349Z,17.50
2023-03-20T16:45:15.645Z,17.50
2023-03-20T16:47:43.467Z,17.50
2023-03-20T16:50:20.157Z,17.40
2023-03-20T16:52:51.257Z,17.30
2023-03-20T16:55:24.152Z,17.30
2023-03-20T16:57:55.930Z,17.30
2023-03-20T17:00:43.843Z,17.20
2023-03-20T17:03:27.494Z,17.20
2023-03-20T17:05:58.328Z,17.10
2023-03-20T17:08:45.378Z,17.00
2023-03-20T17:11:22.446Z,17.00
2023-03-20T17:13:50.042Z,17.00
2023-03-20T17:16:20.902Z,17.00
2023-03-20T17:19:02.707Z,16.90
2023-03-20T17:21:30.617Z,16.90
2023-03-20T17:23:58.206Z,16.90
2023-03-20T17:26:25.788Z,16.80
2023-03-20T17:28:54.235Z,16.70
2023-03-20T17:31:21.623Z,16.70
2023-03-20T17:33:49.016Z,16.70
2023-03-20T17:36:26.709Z,16.60
2023-03-20T17:38:55.070Z,16.70
2023-03-20T17:41:23.000Z,16.60
2023-03-20T17:43:51.998Z,16.60
2023-03-20T17:46:30.555Z,16.60
2023-03-20T17:49:13.274Z,16.50
2023-03-20T17:51:40.844Z,16.50
2023-03-20T17:54:08.456Z,16.50
2023-03-20T17:56:36.164Z,16.40
2023-03-20T17:59:03.773Z,16.40
2023-03-20T18:01:32.718Z,16.40
2023-03-20T18:04:00.343Z,16.30
2023-03-20T18:06:30.986Z,16.30
2023-03-20T18:09:00.087Z,16.30
2023-03-20T18:11:28.420Z,16.20
2023-03-20T18:13:56.031Z,16.20
2023-03-20T18:16:27.638Z,16.20
2023-03-20T18:18:55.618Z,16.20
2023-03-20T18:21:23.077Z,16.20
2023-03-20T18:23:50.689Z,16.20
2023-03-20T18:26:24.197Z,16.20
2023-03-20T18:28:53.800Z,16.20
2023-03-20T18:31:22.028Z,16.20
2023-03-20T18:33:51.752Z,16.10
2023-03-20T18:36:22.553Z,16.10
2023-03-20T18:38:50.755Z,16.00
2023-03-20T18:41:18.281Z,16.00
2023-03-20T18:43:48.576Z,16.00
2023-03-20T18:46:18.574Z,15.90
2023-03-20T18:48:47.260Z,15.90
2023-03-20T18:51:15.754Z,15.90
2023-03-20T18:53:43.883Z,15.90
2023-03-20T18:56:19.894Z,15.90
2023-03-20T18:58:48.217Z,15.80
2023-03-20T19:01:16.537Z,15.80
2023-03-20T19:03:45.711Z,15.80
2023-03-20T19:06:21.579Z,15.80
2023-03-20T19:08:50.681Z,15.80
2023-03-20T19:11:21.532Z,15.80
2023-03-20T19:13:52.249Z,15.70
2023-03-20T19:16:22.466Z,15.70
2023-03-20T19:18:50.534Z,15.70
2023-03-20T19:21:18.661Z,15.70
2023-03-20T19:23:46.679Z,15.70
2023-03-20T19:26:18.959Z,15.70
2023-03-20T19:28:47.537Z,15.70
2023-03-20T19:31:15.400Z,15.70
2023-03-20T19:33:43.101Z,15.60
2023-03-20T19:36:30.099Z,15.60
2023-03-20T19:38:59.854Z,15.50
2023-03-20T19:41:28.864Z,15.50
2023-03-20T19:43:58.014Z,15.50
2023-03-20T19:46:42.995Z,15.40
2023-03-20T19:49:24.910Z,15.40
2023-03-20T19:51:57.416Z,15.30
2023-03-20T19:54:24.933Z,15.30
2023-03-20T19:56:52.240Z,15.30
2023-03-20T19:59:21.101Z,15.30
2023-03-20T20:01:48.776Z,15.30
2023-03-20T20:04:16.460Z,15.30
2023-03-20T20:06:47.199Z,15.30
2023-03-20T20:09:15.319Z,15.30
2023-03-20T20:11:42.869Z,15.30
2023-03-20T20:14:14.688Z,15.20
2023-03-20T20:16:43.289Z,15.20
2023-03-20T20:19:11.604Z,15.20
2023-03-20T20:24:27.571Z,15.20
2023-03-20T20:27:14.713Z,15.20
2023-03-20T20:29:43.597Z,15.20
2023-03-20T20:32:11.211Z,15.10
2023-03-20T20:40:16.951Z,15.20
2023-03-20T20:42:51.445Z,15.20
2023-03-20T20:45:20.787Z,15.10
2023-03-20T20:47:49.414Z,15.10
2023-03-20T20:50:19.642Z,15.10
2023-03-20T20:52:47.323Z,15.10
2023-03-20T20:55:23.074Z,15.10
2023-03-20T20:57:52.492Z,15.10
2023-03-20T21:00:34.034Z,15.10
2023-03-20T21:03:05.020Z,15.10
2023-03-20T21:05:34.526Z,15.00
2023-03-20T21:08:01.858Z,15.00
2023-03-20T21:10:29.169Z,15.00
2023-03-20T21:12:59.772Z,15.00
2023-03-20T21:15:28.218Z,14.90
2023-03-20T21:18:01.393Z,14.90
2023-03-20T21:20:31.519Z,14.90
2023-03-20T21:22:58.865Z,14.90
2023-03-20T21:25:39.123Z,14.90
2023-03-20T21:28:08.236Z,14.80
2023-03-20T21:30:36.043Z,14.80
2023-03-20T21:33:03.594Z,14.70
2023-03-20T21:35:31.493Z,14.70
2023-03-20T21:40:47.227Z,14.70
2023-03-20T21:43:16.337Z,14.60
2023-03-20T21:57:36.014Z,14.50
2023-03-20T22:02:32.480Z,14.50
2023-03-20T22:05:41.848Z,14.50
2023-03-20T22:08:36.807Z,14.50
2023-03-20T22:17:10.135Z,14.50
2023-03-20T22:19:56.036Z,14.50
2023-03-20T22:34:09.136Z,14.50
2023-03-20T22:39:16.038Z,14.50
2023-03-20T22:44:58.515Z,14.50
2023-03-20T22:47:06.768Z,14.50
2023-03-20T22:49:34.262Z,14.40
2023-03-20T22:52:24.569Z,14.40
2023-03-20T22:54:48.838Z,14.40
2023-03-20T22:57:16.711Z,14.30
2023-03-20T22:59:44.052Z,14.30
2023-03-20T23:02:11.514Z,14.30
2023-03-20T23:04:38.968Z,14.30
2023-03-20T23:07:06.779Z,14.20
2023-03-20T23:09:34.147Z,14.20
2023-03-20T23:12:01.482Z,14.10
2023-03-20T23:14:36.245Z,14.10
2023-03-20T23:17:10.569Z,14.00
2023-03-20T23:19:46.949Z,14.00
2023-03-20T23:22:17.847Z,13.90
2023-03-20T23:24:45.257Z,13.90
2023-03-20T23:27:12.931Z,13.80
2023-03-20T23:29:40.945Z,13.80
2023-03-20T23:32:08.383Z,13.80
2023-03-20T23:34:37.234Z,13.70
2023-03-20T23:37:04.620Z,13.70
2023-03-20T23:39:31.954Z,13.70
2023-03-20T23:42:12.150Z,13.70
2023-03-20T23:44:55.288Z,13.70
2023-03-20T23:47:27.659Z,13.70
2023-03-20T23:49:57.614Z,13.70
2023-03-20T23:52:25.128Z,13.60
2023-03-20T23:54:52.792Z,13.60
2023-03-20T23:57:20.755Z,13.60
2023-03-20T23:59:48.081Z,13.60
